createdAt,value
2023-04-25T00:01:14.207Z,2.40
2023-04-25T00:06:37.383Z,2.60
2023-04-25T00:11:59.578Z,2.90
2023-04-25T00:17:22.951Z,2.73
2023-04-25T00:22:45.518Z,2.70
2023-04-25T00:28:07.704Z,2.57
2023-04-25T00:33:30.754Z,2.83
2023-04-25T00:38:54.391Z,2.63
2023-04-25T00:44:18.138Z,2.87
2023-04-25T00:49:40.374Z,2.90
2023-04-25T00:55:02.600Z,2.63
2023-04-25T01:00:25.168Z,2.30
2023-04-25T01:05:48.044Z,2.20
2023-04-25T01:11:10.427Z,2.30
2023-04-25T01:16:33.154Z,2.50
2023-04-25T01:21:55.942Z,2.13
2023-04-25T01:27:19.070Z,2.30
2023-04-25T01:32:43.424Z,2.47
2023-04-25T01:38:05.935Z,2.43
2023-04-25T01:43:29.296Z,1.87
2023-04-25T01:48:52.034Z,2.20
2023-04-25T01:54:14.842Z,2.67
2023-04-25T01:59:37.583Z,2.47
2023-04-25T02:05:12.014Z,3.07
2023-04-25T02:10:37.157Z,2.67
2023-04-25T02:16:14.955Z,2.70
2023-04-25T02:21:37.584Z,2.60
2023-04-25T02:26:59.820Z,2.87
2023-04-25T02:32:22.121Z,2.40
2023-04-25T02:37:44.588Z,2.80
2023-04-25T02:43:08.751Z,2.80
2023-04-25T02:48:31.299Z,2.80
2023-04-25T02:53:53.736Z,2.50
2023-04-25T02:59:16.582Z,2.73
2023-04-25T03:04:38.954Z,3.20
2023-04-25T03:10:01.266Z,2.47
2023-04-25T03:15:26.205Z,2.67
2023-04-25T03:20:48.803Z,2.60
2023-04-25T03:26:11.288Z,2.50
2023-04-25T03:31:33.644Z,2.63
2023-04-25T03:36:56.485Z,3.53
2023-04-25T03:42:19.113Z,2.90
2023-04-25T03:47:42.393Z,3.20
2023-04-25T03:53:04.846Z,3.47
2023-04-25T03:58:40.533Z,3.23
2023-04-25T04:04:03.864Z,3.07
2023-04-25T04:09:27.167Z,3.50
2023-04-25T04:14:50.785Z,4.37
2023-04-25T04:20:13.551Z,3.97
2023-04-25T04:25:36.828Z,3.47
2023-04-25T04:31:17.975Z,3.20
2023-04-25T04:36:41.158Z,3.90
2023-04-25T04:42:04.305Z,3.80
2023-04-25T04:47:38.357Z,3.57
2023-04-25T04:53:20.407Z,3.60
2023-04-25T04:59:02.928Z,3.40
2023-04-25T05:04:31.127Z,3.90
2023-04-25T05:10:22.851Z,3.57
2023-04-25T05:16:07.931Z,3.50
2023-04-25T05:21:40.564Z,3.40
2023-04-25T05:27:09.762Z,3.33
2023-04-25T05:32:41.606Z,3.43
2023-04-25T05:38:10.297Z,3.13
2023-04-25T05:43:58.873Z,3.23
2023-04-25T05:49:36.968Z,3.63
2023-04-25T05:55:34.955Z,3.47
2023-04-25T06:01:07.464Z,3.43
2023-04-25T06:06:30.042Z,3.47
2023-04-25T06:11:54.816Z,3.13
2023-04-25T06:17:17.336Z,3.47
2023-04-25T06:22:39.616Z,4.03
2023-04-25T06:28:01.886Z,4.00
2023-04-25T06:33:25.427Z,3.77
2023-04-25T06:38:48.871Z,3.97
2023-04-25T06:44:11.743Z,3.73
2023-04-25T06:49:46.064Z,4.20
2023-04-25T06:55:09.351Z,4.40
2023-04-25T07:00:48.028Z,4.63
2023-04-25T07:06:10.529Z,4.23
2023-04-25T07:11:33.093Z,4.70
2023-04-25T07:16:57.720Z,4.80
2023-04-25T07:22:22.152Z,4.10
2023-04-25T07:27:45.535Z,4.00
2023-04-25T07:33:11.699Z,4.20
2023-04-25T07:38:34.389Z,3.90
2023-04-25T07:43:57.353Z,3.60
2023-04-25T07:49:19.655Z,4.50
2023-04-25T07:54:42.779Z,4.00
2023-04-25T08:00:12.603Z,4.33
2023-04-25T08:05:43.054Z,4.20
2023-04-25T08:11:05.816Z,3.43
2023-04-25T08:16:28.592Z,3.50
2023-04-25T08:21:52.933Z,4.07
2023-04-25T08:27:22.314Z,3.50
2023-04-25T08:32:45.250Z,3.57
2023-04-25T08:38:42.445Z,3.40
2023-04-25T08:44:10.911Z,3.57
2023-04-25T08:49:35.021Z,3.03
2023-04-25T08:54:58.638Z,4.17
2023-04-25T09:00:24.381Z,3.10
2023-04-25T09:05:47.461Z,2.90
2023-04-25T09:11:13.374Z,2.77
2023-04-25T09:16:38.269Z,3.20
2023-04-25T09:22:24.335Z,3.40
2023-04-25T09:27:55.350Z,2.90
2023-04-25T09:33:29.730Z,3.17
2023-04-25T09:38:53.295Z,2.50
2023-04-25T09:44:28.209Z,2.70
2023-04-25T09:49:52.701Z,2.80
2023-04-25T09:55:16.982Z,2.70
2023-04-25T10:00:42.414Z,2.60
2023-04-25T10:06:23.596Z,2.50
2023-04-25T10:11:49.006Z,2.40
2023-04-25T10:17:12.604Z,2.70
2023-04-25T10:22:39.083Z,2.50
2023-04-25T10:28:03.273Z,2.43
2023-04-25T10:33:39.334Z,3.43
2023-04-25T10:39:10.264Z,2.40
2023-04-25T10:44:33.115Z,2.07
2023-04-25T10:49:55.461Z,2.43
2023-04-25T10:55:17.916Z,2.30
2023-04-25T11:00:53.569Z,2.23
2023-04-25T11:06:53.813Z,2.07
2023-04-25T11:12:18.737Z,2.10
2023-04-25T11:17:41.931Z,2.27
2023-04-25T11:23:05.683Z,2.50
2023-04-25T11:28:28.379Z,3.00
2023-04-25T11:33:50.702Z,2.33
2023-04-25T11:39:13.728Z,2.37
2023-04-25T11:44:36.508Z,2.33
2023-04-25T11:50:00.647Z,2.27
2023-04-25T11:55:23.054Z,1.90
2023-04-25T12:00:50.544Z,2.20
2023-04-25T12:06:19.272Z,1.80
2023-04-25T12:11:46.265Z,1.90
2023-04-25T12:17:09.492Z,1.90
2023-04-25T12:22:32.955Z,1.80
2023-04-25T12:27:55.219Z,1.83
2023-04-25T12:33:18.005Z,1.60
2023-04-25T12:38:42.752Z,1.50
2023-04-25T12:44:05.144Z,2.03
2023-04-25T12:49:27.509Z,1.57
2023-04-25T12:54:49.992Z,2.40
2023-04-25T13:00:15.798Z,1.90
2023-04-25T13:05:38.690Z,1.60
2023-04-25T13:11:01.336Z,1.83
2023-04-25T13:16:23.896Z,2.13
2023-04-25T13:21:46.424Z,1.77
2023-04-25T13:27:08.773Z,1.87
2023-04-25T13:32:31.432Z,1.70
2023-04-25T13:37:53.745Z,1.93
2023-04-25T13:43:16.117Z,1.90
2023-04-25T13:48:38.544Z,1.60
2023-04-25T13:54:00.904Z,2.00
2023-04-25T13:59:23.277Z,1.30
2023-04-25T14:04:46.062Z,1.60
2023-04-25T14:10:08.788Z,1.33
2023-04-25T14:15:35.056Z,1.60
2023-04-25T14:20:58.581Z,1.60
2023-04-25T14:26:21.135Z,1.60
2023-04-25T14:31:43.688Z,1.70
2023-04-25T14:37:06.365Z,1.50
2023-04-25T14:42:28.992Z,1.90
2023-04-25T14:47:51.449Z,1.60
2023-04-25T14:53:14.402Z,1.10
2023-04-25T14:58:36.736Z,1.70
2023-04-25T15:03:59.657Z,1.57
2023-04-25T15:09:24.123Z,1.30
2023-04-25T15:14:46.771Z,1.50
2023-04-25T15:20:11.143Z,1.80
2023-04-25T15:25:33.501Z,1.80
2023-04-25T15:30:55.610Z,1.50
2023-04-25T15:36:19.477Z,1.57
2023-04-25T15:41:41.955Z,1.63
2023-04-25T15:47:04.208Z,2.73
2023-04-25T15:52:27.602Z,1.53
2023-04-25T15:57:51.218Z,1.80
2023-04-25T16:03:13.613Z,1.50
2023-04-25T16:08:36.286Z,1.27
2023-04-25T16:13:58.631Z,1.60
2023-04-25T16:19:21.039Z,1.23
2023-04-25T16:24:44.971Z,1.20
2023-04-25T16:30:10.025Z,1.10
2023-04-25T16:35:32.619Z,1.10
2023-04-25T16:40:54.928Z,1.17
2023-04-25T16:46:19.690Z,1.57
2023-04-25T16:51:42.015Z,1.23
2023-04-25T16:57:05.623Z,1.30
2023-04-25T17:02:28.263Z,1.33
2023-04-25T17:07:50.780Z,1.27
2023-04-25T17:13:13.482Z,1.00
2023-04-25T17:18:36.237Z,1.40
2023-04-25T17:23:59.353Z,1.20
2023-04-25T17:29:23.788Z,1.20
2023-04-25T17:34:46.355Z,1.00
2023-04-25T17:40:12.231Z,1.00
2023-04-25T17:45:35.818Z,1.30
2023-04-25T17:50:58.594Z,1.30
2023-04-25T17:56:27.255Z,1.10
2023-04-25T18:01:50.537Z,1.50
2023-04-25T18:07:13.496Z,1.47
2023-04-25T18:12:36.955Z,1.57
2023-04-25T18:17:59.333Z,1.23
2023-04-25T18:23:22.060Z,1.50
2023-04-25T18:28:44.313Z,1.57
2023-04-25T18:34:07.440Z,2.40
2023-04-25T18:39:30.144Z,1.67
2023-04-25T18:44:52.744Z,1.50
2023-04-25T18:50:15.656Z,1.37
2023-04-25T18:55:38.232Z,2.40
2023-04-25T19:01:01.571Z,2.23
2023-04-25T19:06:29.622Z,2.03
2023-04-25T19:11:52.193Z,2.00
2023-04-25T19:17:14.432Z,1.93
2023-04-25T19:22:37.134Z,2.20
2023-04-25T19:28:00.709Z,2.50
2023-04-25T19:33:23.327Z,1.70
2023-04-25T19:38:46.128Z,2.60
2023-04-25T19:44:09.622Z,2.00
2023-04-25T19:49:32.308Z,1.90
2023-04-25T19:54:58.204Z,1.70
2023-04-25T20:00:22.229Z,1.77
2023-04-25T20:05:44.623Z,1.30
2023-04-25T20:11:07.687Z,1.33
2023-04-25T20:16:30.007Z,1.87
2023-04-25T20:21:52.469Z,1.50
2023-04-25T20:27:14.612Z,1.17
2023-04-25T20:32:37.537Z,1.17
2023-04-25T20:37:59.757Z,1.70
2023-04-25T20:43:23.578Z,1.60
2023-04-25T20:48:46.131Z,1.63
2023-04-25T20:54:09.666Z,1.40
2023-04-25T20:59:33.801Z,1.80
2023-04-25T21:04:55.993Z,1.40
2023-04-25T21:10:18.786Z,1.53
2023-04-25T21:15:41.481Z,1.10
2023-04-25T21:21:04.349Z,1.50
2023-04-25T21:26:27.646Z,1.33
2023-04-25T21:31:50.971Z,1.60
2023-04-25T21:37:13.315Z,1.40
2023-04-25T21:42:38.996Z,1.47
2023-04-25T21:48:01.370Z,1.20
2023-04-25T21:53:26.425Z,1.13
2023-04-25T21:58:49.341Z,1.40
2023-04-25T22:04:11.737Z,1.40
2023-04-25T22:09:43.886Z,1.57
2023-04-25T22:15:13.861Z,1.33
2023-04-25T22:20:36.945Z,1.53
2023-04-25T22:25:59.715Z,1.20
2023-04-25T22:31:22.339Z,1.30
2023-04-25T22:36:44.930Z,1.40
2023-04-25T22:42:07.326Z,1.23
2023-04-25T22:47:29.662Z,1.30
2023-04-25T22:52:52.122Z,1.37
2023-04-25T22:58:14.794Z,1.20
2023-04-25T23:03:37.680Z,1.30
2023-04-25T23:09:00.601Z,1.43
2023-04-25T23:14:23.856Z,1.27
2023-04-25T23:19:46.608Z,1.23
2023-04-25T23:25:09.981Z,1.37
2023-04-25T23:30:32.379Z,1.50
2023-04-25T23:35:54.475Z,1.30
2023-04-25T23:41:17.106Z,1.40
2023-04-25T23:46:39.468Z,1.63
2023-04-25T23:52:01.732Z,1.50
2023-04-25T23:57:24.247Z,1.50
